sensor_id;sensor_type;location;lat;lon;timestamp;pressure;altitude;pressure_sealevel;temperature;humidity
21100;BME280;10708;50.824;4.408;2022-12-29T00:00:34;99211.09;;;10.71;100.00
21100;BME280;10708;50.824;4.408;2022-12-29T00:05:37;99213.16;;;10.66;100.00
21100;BME280;10708;50.824;4.408;2022-12-29T00:10:39;99199.31;;;10.62;100.00
21100;BME280;10708;50.824;4.408;2022-12-29T00:15:43;99194.66;;;10.67;100.00
21100;BME280;10708;50.824;4.408;2022-12-29T00:20:45;99197.00;;;10.72;100.00
21100;BME280;10708;50.824;4.408;2022-12-29T00:26:11;99190.97;;;10.70;100.00
21100;BME280;10708;50.824;4.408;2022-12-29T00:31:33;99186.88;;;10.80;100.00
21100;BME280;10708;50.824;4.408;2022-12-29T00:36:53;99182.66;;;10.78;100.00
21100;BME280;10708;50.824;4.408;2022-12-29T00:41:56;99186.63;;;10.85;100.00
21100;BME280;10708;50.824;4.408;2022-12-29T00:47:20;99193.91;;;10.80;100.00
21100;BME280;10708;50.824;4.408;2022-12-29T00:52:22;99184.38;;;10.93;100.00
21100;BME280;10708;50.824;4.408;2022-12-29T00:57:24;99177.56;;;10.89;100.00
21100;BME280;10708;50.824;4.408;2022-12-29T01:02:30;99177.16;;;10.96;100.00
21100;BME280;10708;50.824;4.408;2022-12-29T01:07:33;99179.34;;;10.88;100.00
21100;BME280;10708;50.824;4.408;2022-12-29T01:12:35;99186.78;;;10.82;100.00
21100;BME280;10708;50.824;4.408;2022-12-29T01:17:47;99184.22;;;10.80;100.00
21100;BME280;10708;50.824;4.408;2022-12-29T01:22:49;99180.44;;;10.70;100.00
21100;BME280;10708;50.824;4.408;2022-12-29T01:27:52;99192.44;;;10.60;100.00
21100;BME280;10708;50.824;4.408;2022-12-29T01:32:56;99196.59;;;10.48;100.00
21100;BME280;10708;50.824;4.408;2022-12-29T01:37:58;99182.88;;;10.43;100.00
21100;BME280;10708;50.824;4.408;2022-12-29T01:43:00;99177.97;;;10.37;100.00
21100;BME280;10708;50.824;4.408;2022-12-29T01:48:05;99169.66;;;10.29;100.00
21100;BME280;10708;50.824;4.408;2022-12-29T01:53:14;99175.94;;;10.26;100.00
21100;BME280;10708;50.824;4.408;2022-12-29T01:58:20;99180.75;;;10.18;100.00
21100;BME280;10708;50.824;4.408;2022-12-29T02:03:26;99185.09;;;10.19;100.00
21100;BME280;10708;50.824;4.408;2022-12-29T02:08:29;99186.78;;;10.20;100.00
21100;BME280;10708;50.824;4.408;2022-12-29T02:13:32;99203.34;;;10.07;100.00
21100;BME280;10708;50.824;4.408;2022-12-29T02:18:43;99189.84;;;9.97;100.00
21100;BME280;10708;50.824;4.408;2022-12-29T02:29:56;99196.50;;;9.71;100.00
21100;BME280;10708;50.824;4.408;2022-12-29T02:35:10;99174.97;;;9.65;100.00
21100;BME280;10708;50.824;4.408;2022-12-29T02:40:24;99177.06;;;9.58;100.00
21100;BME280;10708;50.824;4.408;2022-12-29T02:45:31;99187.13;;;9.50;100.00
21100;BME280;10708;50.824;4.408;2022-12-29T02:50:39;99153.38;;;9.42;100.00
21100;BME280;10708;50.824;4.408;2022-12-29T02:55:48;99147.00;;;9.31;100.00
21100;BME280;10708;50.824;4.408;2022-12-29T03:01:00;99159.84;;;9.19;100.00
21100;BME280;10708;50.824;4.408;2022-12-29T03:06:21;99173.38;;;9.12;100.00
21100;BME280;10708;50.824;4.408;2022-12-29T03:11:34;99170.22;;;9.05;100.00
21100;BME280;10708;50.824;4.408;2022-12-29T03:17:00;99165.38;;;8.98;100.00
21100;BME280;10708;50.824;4.408;2022-12-29T03:22:10;99180.34;;;8.96;100.00
21100;BME280;10708;50.824;4.408;2022-12-29T03:27:34;99159.50;;;8.93;100.00
21100;BME280;10708;50.824;4.408;2022-12-29T03:32:42;99172.41;;;8.97;100.00
21100;BME280;10708;50.824;4.408;2022-12-29T03:37:50;99176.72;;;8.98;100.00
21100;BME280;10708;50.824;4.408;2022-12-29T03:42:55;99178.31;;;9.01;100.00
21100;BME280;10708;50.824;4.408;2022-12-29T03:47:58;99168.66;;;9.01;100.00
21100;BME280;10708;50.824;4.408;2022-12-29T03:53:01;99178.25;;;9.02;100.00
21100;BME280;10708;50.824;4.408;2022-12-29T03:58:04;99184.22;;;9.06;100.00
21100;BME280;10708;50.824;4.408;2022-12-29T04:03:06;99181.72;;;9.03;100.00
21100;BME280;10708;50.824;4.408;2022-12-29T04:08:10;99180.16;;;8.99;100.00
21100;BME280;10708;50.824;4.408;2022-12-29T04:13:12;99181.41;;;8.92;100.00
21100;BME280;10708;50.824;4.408;2022-12-29T04:18:15;99186.13;;;8.85;100.00
21100;BME280;10708;50.824;4.408;2022-12-29T04:23:18;99186.44;;;8.79;100.00
21100;BME280;10708;50.824;4.408;2022-12-29T04:28:21;99187.47;;;8.76;100.00
21100;BME280;10708;50.824;4.408;2022-12-29T04:33:23;99181.34;;;8.76;100.00
21100;BME280;10708;50.824;4.408;2022-12-29T04:38:27;99201.31;;;8.78;100.00
21100;BME280;10708;50.824;4.408;2022-12-29T04:43:30;99208.06;;;8.84;100.00
21100;BME280;10708;50.824;4.408;2022-12-29T04:48:32;99221.72;;;8.91;100.00
21100;BME280;10708;50.824;4.408;2022-12-29T04:53:36;99218.50;;;9.03;100.00
21100;BME280;10708;50.824;4.408;2022-12-29T04:58:38;99225.91;;;9.12;100.00
21100;BME280;10708;50.824;4.408;2022-12-29T05:03:41;99222.97;;;9.18;100.00
21100;BME280;10708;50.824;4.408;2022-12-29T05:08:44;99224.44;;;9.23;100.00
21100;BME280;10708;50.824;4.408;2022-12-29T05:13:47;99225.22;;;9.25;100.00
21100;BME280;10708;50.824;4.408;2022-12-29T05:18:49;99220.81;;;9.26;100.00
21100;BME280;10708;50.824;4.408;2022-12-29T05:23:53;99226.91;;;9.27;100.00
21100;BME280;10708;50.824;4.408;2022-12-29T05:28:55;99231.97;;;9.30;100.00
21100;BME280;10708;50.824;4.408;2022-12-29T05:33:58;99232.91;;;9.29;100.00
21100;BME280;10708;50.824;4.408;2022-12-29T05:39:01;99244.81;;;9.36;100.00
21100;BME280;10708;50.824;4.408;2022-12-29T05:44:04;99229.84;;;9.38;100.00
21100;BME280;10708;50.824;4.408;2022-12-29T05:49:06;99234.13;;;9.39;100.00
21100;BME280;10708;50.824;4.408;2022-12-29T05:54:10;99228.44;;;9.31;100.00
21100;BME280;10708;50.824;4.408;2022-12-29T05:59:12;99252.31;;;9.26;100.00
21100;BME280;10708;50.824;4.408;2022-12-29T06:04:15;99246.44;;;9.21;100.00
21100;BME280;10708;50.824;4.408;2022-12-29T06:09:19;99251.53;;;9.24;100.00
21100;BME280;10708;50.824;4.408;2022-12-29T06:14:21;99263.91;;;9.22;100.00
21100;BME280;10708;50.824;4.408;2022-12-29T06:19:23;99261.66;;;9.14;100.00
21100;BME280;10708;50.824;4.408;2022-12-29T06:24:27;99254.66;;;9.15;100.00
21100;BME280;10708;50.824;4.408;2022-12-29T06:29:29;99275.72;;;9.13;100.00
21100;BME280;10708;50.824;4.408;2022-12-29T06:34:32;99281.84;;;9.14;100.00
21100;BME280;10708;50.824;4.408;2022-12-29T06:39:36;99282.44;;;9.19;100.00
21100;BME280;10708;50.824;4.408;2022-12-29T06:44:38;99287.47;;;9.23;100.00
21100;BME280;10708;50.824;4.408;2022-12-29T06:49:41;99297.59;;;9.31;100.00
21100;BME280;10708;50.824;4.408;2022-12-29T06:54:44;99289.31;;;9.39;100.00
21100;BME280;10708;50.824;4.408;2022-12-29T06:59:47;99304.47;;;9.34;100.00
21100;BME280;10708;50.824;4.408;2022-12-29T07:04:49;99301.78;;;9.35;100.00
21100;BME280;10708;50.824;4.408;2022-12-29T07:09:54;99306.03;;;9.38;100.00
21100;BME280;10708;50.824;4.408;2022-12-29T07:14:56;99312.22;;;9.37;100.00
21100;BME280;10708;50.824;4.408;2022-12-29T07:19:59;99304.53;;;9.32;100.00
21100;BME280;10708;50.824;4.408;2022-12-29T07:25:03;99318.38;;;9.36;100.00
21100;BME280;10708;50.824;4.408;2022-12-29T07:30:09;99306.88;;;9.38;100.00
21100;BME280;10708;50.824;4.408;2022-12-29T07:35:12;99319.91;;;9.40;100.00
21100;BME280;10708;50.824;4.408;2022-12-29T07:40:16;99336.91;;;9.33;100.00
21100;BME280;10708;50.824;4.408;2022-12-29T07:45:18;99321.09;;;9.34;100.00
21100;BME280;10708;50.824;4.408;2022-12-29T07:50:20;99327.78;;;9.40;100.00
21100;BME280;10708;50.824;4.408;2022-12-29T07:55:25;99342.56;;;9.42;100.00
21100;BME280;10708;50.824;4.408;2022-12-29T08:00:27;99353.00;;;9.44;100.00
21100;BME280;10708;50.824;4.408;2022-12-29T08:05:30;99358.19;;;9.45;100.00
21100;BME280;10708;50.824;4.408;2022-12-29T08:10:34;99356.41;;;9.46;100.00
21100;BME280;10708;50.824;4.408;2022-12-29T08:15:40;99337.94;;;9.47;100.00
21100;BME280;10708;50.824;4.408;2022-12-29T08:20:47;99354.09;;;9.57;100.00
21100;BME280;10708;50.824;4.408;2022-12-29T08:25:58;99365.22;;;9.62;100.00
21100;BME280;10708;50.824;4.408;2022-12-29T08:31:01;99357.47;;;9.59;100.00
21100;BME280;10708;50.824;4.408;2022-12-29T08:36:06;99376.84;;;9.58;100.00
21100;BME280;10708;50.824;4.408;2022-12-29T08:41:10;99379.53;;;9.56;100.00
21100;BME280;10708;50.824;4.408;2022-12-29T08:46:13;99369.94;;;9.55;100.00
21100;BME280;10708;50.824;4.408;2022-12-29T08:51:15;99357.25;;;9.63;100.00
21100;BME280;10708;50.824;4.408;2022-12-29T08:56:20;99383.59;;;9.62;100.00
21100;BME280;10708;50.824;4.408;2022-12-29T09:01:23;99392.34;;;9.62;100.00
21100;BME280;10708;50.824;4.408;2022-12-29T09:06:26;99402.72;;;9.66;100.00
21100;BME280;10708;50.824;4.408;2022-12-29T09:11:30;99408.44;;;9.56;100.00
21100;BME280;10708;50.824;4.408;2022-12-29T09:16:33;99400.47;;;9.58;100.00
21100;BME280;10708;50.824;4.408;2022-12-29T09:21:36;99429.16;;;9.62;100.00
21100;BME280;10708;50.824;4.408;2022-12-29T09:26:40;99445.38;;;9.71;100.00
21100;BME280;10708;50.824;4.408;2022-12-29T09:31:43;99431.72;;;9.64;100.00
21100;BME280;10708;50.824;4.408;2022-12-29T09:36:45;99440.44;;;9.65;100.00
21100;BME280;10708;50.824;4.408;2022-12-29T09:41:52;99449.44;;;9.78;100.00
21100;BME280;10708;50.824;4.408;2022-12-29T09:47:01;99462.47;;;9.79;100.00
21100;BME280;10708;50.824;4.408;2022-12-29T09:52:06;99471.84;;;9.85;100.00
21100;BME280;10708;50.824;4.408;2022-12-29T09:57:21;99491.50;;;9.95;100.00
21100;BME280;10708;50.824;4.408;2022-12-29T10:02:32;99515.31;;;9.92;100.00
21100;BME280;10708;50.824;4.408;2022-12-29T10:07:40;99504.94;;;9.89;100.00
21100;BME280;10708;50.824;4.408;2022-12-29T10:12:59;99514.00;;;9.83;100.00
21100;BME280;10708;50.824;4.408;2022-12-29T10:18:12;99532.09;;;9.89;100.00
21100;BME280;10708;50.824;4.408;2022-12-29T10:23:26;99514.47;;;9.91;100.00
21100;BME280;10708;50.824;4.408;2022-12-29T10:28:36;99522.59;;;9.87;100.00
21100;BME280;10708;50.824;4.408;2022-12-29T10:33:41;99525.69;;;9.95;100.00
21100;BME280;10708;50.824;4.408;2022-12-29T10:39:06;99532.09;;;9.89;100.00
21100;BME280;10708;50.824;4.408;2022-12-29T10:44:16;99544.09;;;9.95;100.00
21100;BME280;10708;50.824;4.408;2022-12-29T10:49:19;99552.91;;;9.94;100.00
21100;BME280;10708;50.824;4.408;2022-12-29T10:54:25;99556.41;;;9.94;100.00
21100;BME280;10708;50.824;4.408;2022-12-29T10:59:32;99543.41;;;9.91;100.00
21100;BME280;10708;50.824;4.408;2022-12-29T11:04:45;99558.03;;;9.97;100.00
21100;BME280;10708;50.824;4.408;2022-12-29T11:09:49;99565.09;;;10.14;100.00
21100;BME280;10708;50.824;4.408;2022-12-29T11:15:11;99570.22;;;10.17;100.00
21100;BME280;10708;50.824;4.408;2022-12-29T11:20:30;99576.31;;;10.17;100.00
21100;BME280;10708;50.824;4.408;2022-12-29T11:25:33;99580.06;;;10.30;100.00
21100;BME280;10708;50.824;4.408;2022-12-29T11:30:36;99600.91;;;10.35;100.00
21100;BME280;10708;50.824;4.408;2022-12-29T11:35:41;99600.06;;;10.16;100.00
21100;BME280;10708;50.824;4.408;2022-12-29T11:40:45;99607.63;;;10.05;100.00
21100;BME280;10708;50.824;4.408;2022-12-29T11:45:52;99596.00;;;9.91;100.00
21100;BME280;10708;50.824;4.408;2022-12-29T11:50:58;99604.19;;;9.85;100.00
21100;BME280;10708;50.824;4.408;2022-12-29T11:56:04;99618.81;;;9.91;100.00
21100;BME280;10708;50.824;4.408;2022-12-29T12:01:13;99615.69;;;9.83;100.00
21100;BME280;10708;50.824;4.408;2022-12-29T12:06:20;99623.97;;;9.75;100.00
21100;BME280;10708;50.824;4.408;2022-12-29T12:11:29;99621.53;;;9.71;100.00
21100;BME280;10708;50.824;4.408;2022-12-29T12:16:42;99625.25;;;9.67;100.00
21100;BME280;10708;50.824;4.408;2022-12-29T12:21:50;99630.19;;;9.73;100.00
21100;BME280;10708;50.824;4.408;2022-12-29T12:26:59;99619.81;;;9.70;100.00
21100;BME280;10708;50.824;4.408;2022-12-29T12:32:12;99640.28;;;9.63;100.00
21100;BME280;10708;50.824;4.408;2022-12-29T12:37:38;99643.28;;;9.55;100.00
21100;BME280;10708;50.824;4.408;2022-12-29T12:42:53;99643.97;;;9.59;100.00
21100;BME280;10708;50.824;4.408;2022-12-29T12:48:11;99640.28;;;9.63;100.00
21100;BME280;10708;50.824;4.408;2022-12-29T12:59:24;99625.94;;;9.70;100.00
21100;BME280;10708;50.824;4.408;2022-12-29T13:10:15;99655.50;;;9.75;100.00
21100;BME280;10708;50.824;4.408;2022-12-29T13:15:32;99638.47;;;9.65;100.00
21100;BME280;10708;50.824;4.408;2022-12-29T13:20:44;99657.56;;;9.69;100.00
21100;BME280;10708;50.824;4.408;2022-12-29T13:25:53;99647.31;;;9.62;100.00
21100;BME280;10708;50.824;4.408;2022-12-29T13:31:07;99655.72;;;9.52;100.00
21100;BME280;10708;50.824;4.408;2022-12-29T13:36:23;99653.88;;;9.54;100.00
21100;BME280;10708;50.824;4.408;2022-12-29T13:41:30;99666.16;;;9.53;100.00
21100;BME280;10708;50.824;4.408;2022-12-29T13:46:40;99662.09;;;9.46;100.00
21100;BME280;10708;50.824;4.408;2022-12-29T13:51:48;99668.28;;;9.45;100.00
21100;BME280;10708;50.824;4.408;2022-12-29T13:56:54;99671.25;;;9.38;100.00
21100;BME280;10708;50.824;4.408;2022-12-29T14:02:00;99667.91;;;9.34;100.00
21100;BME280;10708;50.824;4.408;2022-12-29T14:07:12;99665.41;;;9.31;100.00
21100;BME280;10708;50.824;4.408;2022-12-29T14:17:40;99667.00;;;9.35;100.00
21100;BME280;10708;50.824;4.408;2022-12-29T14:22:58;99676.66;;;9.35;100.00
21100;BME280;10708;50.824;4.408;2022-12-29T14:28:16;99674.53;;;9.43;100.00
21100;BME280;10708;50.824;4.408;2022-12-29T14:33:19;99674.41;;;9.46;100.00
21100;BME280;10708;50.824;4.408;2022-12-29T14:38:27;99670.13;;;9.43;100.00
21100;BME280;10708;50.824;4.408;2022-12-29T14:43:29;99668.91;;;9.50;100.00
21100;BME280;10708;50.824;4.408;2022-12-29T14:48:39;99697.88;;;9.49;100.00
21100;BME280;10708;50.824;4.408;2022-12-29T14:53:47;99695.34;;;9.47;100.00
21100;BME280;10708;50.824;4.408;2022-12-29T14:58:52;99694.50;;;9.47;100.00
21100;BME280;10708;50.824;4.408;2022-12-29T15:03:58;99710.13;;;9.50;100.00
21100;BME280;10708;50.824;4.408;2022-12-29T15:09:09;99728.13;;;9.18;100.00
21100;BME280;10708;50.824;4.408;2022-12-29T15:14:32;99756.31;;;8.29;100.00
21100;BME280;10708;50.824;4.408;2022-12-29T15:19:36;99742.25;;;7.87;100.00
21100;BME280;10708;50.824;4.408;2022-12-29T15:24:42;99752.38;;;7.72;100.00
21100;BME280;10708;50.824;4.408;2022-12-29T15:29:46;99756.25;;;7.62;100.00
21100;BME280;10708;50.824;4.408;2022-12-29T15:34:50;99759.34;;;7.49;100.00
21100;BME280;10708;50.824;4.408;2022-12-29T15:39:55;99741.47;;;7.36;100.00
21100;BME280;10708;50.824;4.408;2022-12-29T15:44:58;99747.09;;;7.26;100.00
21100;BME280;10708;50.824;4.408;2022-12-29T15:50:03;99758.75;;;7.17;100.00
21100;BME280;10708;50.824;4.408;2022-12-29T15:55:19;99771.94;;;7.14;100.00
21100;BME280;10708;50.824;4.408;2022-12-29T16:00:24;99783.31;;;7.13;100.00
21100;BME280;10708;50.824;4.408;2022-12-29T16:05:32;99793.88;;;7.10;100.00
21100;BME280;10708;50.824;4.408;2022-12-29T16:10:39;99814.13;;;7.05;100.00
21100;BME280;10708;50.824;4.408;2022-12-29T16:15:45;99822.91;;;7.04;100.00
21100;BME280;10708;50.824;4.408;2022-12-29T16:20:48;99821.34;;;6.98;100.00
21100;BME280;10708;50.824;4.408;2022-12-29T16:25:53;99821.47;;;6.94;100.00
21100;BME280;10708;50.824;4.408;2022-12-29T16:30:59;99816.38;;;6.89;100.00
21100;BME280;10708;50.824;4.408;2022-12-29T16:36:26;99813.00;;;6.87;100.00
21100;BME280;10708;50.824;4.408;2022-12-29T16:41:31;99826.00;;;6.89;100.00
21100;BME280;10708;50.824;4.408;2022-12-29T16:46:33;99825.31;;;6.84;100.00
21100;BME280;10708;50.824;4.408;2022-12-29T16:51:36;99828.81;;;6.83;100.00
21100;BME280;10708;50.824;4.408;2022-12-29T16:56:43;99842.75;;;6.83;100.00
21100;BME280;10708;50.824;4.408;2022-12-29T17:01:47;99851.47;;;6.84;100.00
21100;BME280;10708;50.824;4.408;2022-12-29T17:06:49;99847.16;;;6.83;100.00
21100;BME280;10708;50.824;4.408;2022-12-29T17:11:54;99847.00;;;6.87;100.00
21100;BME280;10708;50.824;4.408;2022-12-29T17:17:00;99849.50;;;6.90;100.00
21100;BME280;10708;50.824;4.408;2022-12-29T17:22:12;99858.22;;;6.91;100.00
21100;BME280;10708;50.824;4.408;2022-12-29T17:27:26;99872.03;;;6.96;100.00
21100;BME280;10708;50.824;4.408;2022-12-29T17:32:29;99887.63;;;6.99;100.00
21100;BME280;10708;50.824;4.408;2022-12-29T17:37:36;99891.00;;;7.02;100.00
21100;BME280;10708;50.824;4.408;2022-12-29T17:42:42;99892.63;;;7.07;100.00
21100;BME280;10708;50.824;4.408;2022-12-29T17:47:46;99899.63;;;7.06;100.00
21100;BME280;10708;50.824;4.408;2022-12-29T17:52:52;99910.25;;;7.01;100.00
21100;BME280;10708;50.824;4.408;2022-12-29T17:57:56;99913.66;;;7.03;100.00
21100;BME280;10708;50.824;4.408;2022-12-29T18:02:59;99908.53;;;7.00;100.00
21100;BME280;10708;50.824;4.408;2022-12-29T18:08:01;99919.16;;;6.96;100.00
21100;BME280;10708;50.824;4.408;2022-12-29T18:13:05;99927.09;;;6.93;100.00
21100;BME280;10708;50.824;4.408;2022-12-29T18:18:10;99935.03;;;6.90;100.00
21100;BME280;10708;50.824;4.408;2022-12-29T18:23:18;99927.28;;;6.87;100.00
21100;BME280;10708;50.824;4.408;2022-12-29T18:28:25;99924.72;;;6.85;100.00
21100;BME280;10708;50.824;4.408;2022-12-29T18:33:28;99934.38;;;6.83;100.00
21100;BME280;10708;50.824;4.408;2022-12-29T18:38:31;99942.09;;;6.88;100.00
21100;BME280;10708;50.824;4.408;2022-12-29T18:43:35;99959.44;;;6.90;100.00
21100;BME280;10708;50.824;4.408;2022-12-29T18:48:37;99961.03;;;6.96;100.00
21100;BME280;10708;50.824;4.408;2022-12-29T18:53:40;99956.47;;;7.02;100.00
21100;BME280;10708;50.824;4.408;2022-12-29T18:58:47;99959.00;;;7.06;100.00
21100;BME280;10708;50.824;4.408;2022-12-29T19:03:49;99962.44;;;7.08;100.00
21100;BME280;10708;50.824;4.408;2022-12-29T19:08:52;99972.94;;;7.06;100.00
21100;BME280;10708;50.824;4.408;2022-12-29T19:13:56;99977.94;;;7.14;100.00
21100;BME280;10708;50.824;4.408;2022-12-29T19:18:58;99980.47;;;7.17;100.00
21100;BME280;10708;50.824;4.408;2022-12-29T19:24:01;99979.56;;;7.18;100.00
21100;BME280;10708;50.824;4.408;2022-12-29T19:29:06;99987.44;;;7.18;100.00
21100;BME280;10708;50.824;4.408;2022-12-29T19:34:12;99987.59;;;7.12;100.00
21100;BME280;10708;50.824;4.408;2022-12-29T19:39:15;99986.84;;;7.08;100.00
21100;BME280;10708;50.824;4.408;2022-12-29T19:44:19;99987.03;;;7.02;100.00
21100;BME280;10708;50.824;4.408;2022-12-29T19:49:22;99989.59;;;7.03;100.00
21100;BME280;10708;50.824;4.408;2022-12-29T19:54:25;99995.78;;;7.01;100.00
21100;BME280;10708;50.824;4.408;2022-12-29T19:59:29;100004.38;;;7.06;100.00
21100;BME280;10708;50.824;4.408;2022-12-29T20:04:31;99994.63;;;7.10;100.00
21100;BME280;10708;50.824;4.408;2022-12-29T20:09:34;99984.06;;;7.13;100.00
21100;BME280;10708;50.824;4.408;2022-12-29T20:14:38;100003.31;;;7.12;100.00
21100;BME280;10708;50.824;4.408;2022-12-29T20:19:41;100002.31;;;7.16;100.00
21100;BME280;10708;50.824;4.408;2022-12-29T20:24:44;100022.31;;;7.18;100.00
21100;BME280;10708;50.824;4.408;2022-12-29T20:29:48;100023.16;;;7.19;100.00
21100;BME280;10708;50.824;4.408;2022-12-29T20:34:51;100011.03;;;7.16;100.00
21100;BME280;10708;50.824;4.408;2022-12-29T20:39:54;100004.09;;;7.15;100.00
21100;BME280;10708;50.824;4.408;2022-12-29T20:44:57;100002.50;;;7.10;100.00
21100;BME280;10708;50.824;4.408;2022-12-29T20:50:01;100007.78;;;7.08;100.00
21100;BME280;10708;50.824;4.408;2022-12-29T20:55:04;100022.72;;;7.04;100.00
21100;BME280;10708;50.824;4.408;2022-12-29T21:00:10;100020.34;;;6.97;100.00
21100;BME280;10708;50.824;4.408;2022-12-29T21:05:13;100012.63;;;6.92;100.00
21100;BME280;10708;50.824;4.408;2022-12-29T21:10:16;100017.81;;;6.94;100.00
21100;BME280;10708;50.824;4.408;2022-12-29T21:15:20;100026.66;;;6.90;100.00
21100;BME280;10708;50.824;4.408;2022-12-29T21:20:23;100025.00;;;6.87;100.00
21100;BME280;10708;50.824;4.408;2022-12-29T21:25:32;100027.63;;;6.87;100.00
21100;BME280;10708;50.824;4.408;2022-12-29T21:30:40;100045.28;;;6.79;100.00
21100;BME280;10708;50.824;4.408;2022-12-29T21:35:43;100041.91;;;6.76;100.00
21100;BME280;10708;50.824;4.408;2022-12-29T21:40:45;100042.66;;;6.79;100.00
21100;BME280;10708;50.824;4.408;2022-12-29T21:45:50;100045.47;;;6.73;100.00
21100;BME280;10708;50.824;4.408;2022-12-29T21:50:53;100050.72;;;6.72;100.00
21100;BME280;10708;50.824;4.408;2022-12-29T21:56:15;100048.28;;;6.65;100.00
21100;BME280;10708;50.824;4.408;2022-12-29T22:01:20;100058.88;;;6.61;100.00
21100;BME280;10708;50.824;4.408;2022-12-29T22:06:43;100059.88;;;6.57;100.00
21100;BME280;10708;50.824;4.408;2022-12-29T22:12:04;100071.31;;;6.53;100.00
21100;BME280;10708;50.824;4.408;2022-12-29T22:17:25;100075.66;;;6.54;100.00
21100;BME280;10708;50.824;4.408;2022-12-29T22:22:27;100086.16;;;6.52;100.00
21100;BME280;10708;50.824;4.408;2022-12-29T22:27:30;100080.06;;;6.52;100.00
21100;BME280;10708;50.824;4.408;2022-12-29T22:32:34;100085.28;;;6.52;100.00
21100;BME280;10708;50.824;4.408;2022-12-29T22:37:38;100098.34;;;6.53;100.00
21100;BME280;10708;50.824;4.408;2022-12-29T22:42:41;100103.59;;;6.52;100.00
21100;BME280;10708;50.824;4.408;2022-12-29T22:47:45;100107.28;;;6.45;100.00
21100;BME280;10708;50.824;4.408;2022-12-29T22:52:47;100112.56;;;6.43;100.00
21100;BME280;10708;50.824;4.408;2022-12-29T22:57:51;100118.75;;;6.39;100.00
21100;BME280;10708;50.824;4.408;2022-12-29T23:02:55;100116.91;;;6.44;100.00
21100;BME280;10708;50.824;4.408;2022-12-29T23:07:59;100109.03;;;6.44;100.00
21100;BME280;10708;50.824;4.408;2022-12-29T23:13:03;100113.44;;;6.42;100.00
21100;BME280;10708;50.824;4.408;2022-12-29T23:18:07;100109.94;;;6.43;100.00
21100;BME280;10708;50.824;4.408;2022-12-29T23:23:09;100110.72;;;6.47;100.00
21100;BME280;10708;50.824;4.408;2022-12-29T23:28:12;100114.28;;;6.44;100.00
21100;BME280;10708;50.824;4.408;2022-12-29T23:33:16;100118.69;;;6.42;100.00
21100;BME280;10708;50.824;4.408;2022-12-29T23:38:19;100108.28;;;6.39;100.00
21100;BME280;10708;50.824;4.408;2022-12-29T23:43:21;100128.25;;;6.43;100.00
21100;BME280;10708;50.824;4.408;2022-12-29T23:48:25;100123.09;;;6.40;100.00
21100;BME280;10708;50.824;4.408;2022-12-29T23:53:27;100118.81;;;6.38;100.00
21100;BME280;10708;50.824;4.408;2022-12-29T23:58:30;100126.81;;;6.32;100.00
